createdAt,value
2023-08-11T00:01:31.010Z,21.92
2023-08-11T00:03:58.406Z,21.91
2023-08-11T00:06:26.497Z,22.04
2023-08-11T00:08:56.185Z,22.09
2023-08-11T00:11:23.521Z,22.10
2023-08-11T00:13:50.580Z,21.83
2023-08-11T00:16:17.639Z,21.62
2023-08-11T00:18:44.585Z,21.56
2023-08-11T00:21:13.752Z,21.77
2023-08-11T00:23:41.192Z,21.79
2023-08-11T00:26:07.891Z,21.51
2023-08-11T00:28:34.590Z,21.54
2023-08-11T00:31:01.379Z,21.74
2023-08-11T00:33:28.217Z,21.72
2023-08-11T00:35:55.337Z,21.40
2023-08-11T00:38:24.918Z,21.57
2023-08-11T00:40:53.067Z,21.19
2023-08-11T00:43:19.903Z,21.36
2023-08-11T00:45:49.387Z,21.51
2023-08-11T00:48:16.757Z,21.39
2023-08-11T00:50:43.729Z,21.58
2023-08-11T00:53:11.219Z,21.71
2023-08-11T00:55:38.870Z,21.79
2023-08-11T00:58:06.969Z,21.89
2023-08-11T01:00:34.945Z,21.87
2023-08-11T01:03:02.926Z,21.93
2023-08-11T01:05:35.756Z,21.82
2023-08-11T01:08:21.854Z,21.58
2023-08-11T01:10:58.850Z,21.76
2023-08-11T01:13:30.374Z,21.86
2023-08-11T01:16:01.441Z,21.81
2023-08-11T01:18:30.044Z,21.46
2023-08-11T01:21:01.199Z,21.47
2023-08-11T01:23:28.288Z,21.58
2023-08-11T01:25:55.954Z,21.72
2023-08-11T01:28:23.821Z,21.78
2023-08-11T01:30:50.555Z,21.62
2023-08-11T01:33:17.320Z,21.39
2023-08-11T01:35:45.448Z,21.33
2023-08-11T01:38:12.192Z,21.50
2023-08-11T01:40:39.913Z,21.47
2023-08-11T01:43:09.683Z,21.19
2023-08-11T01:45:36.504Z,21.26
2023-08-11T01:48:04.696Z,21.38
2023-08-11T01:50:33.328Z,21.50
2023-08-11T01:53:00.007Z,21.56
2023-08-11T01:55:27.435Z,21.48
2023-08-11T01:57:59.090Z,21.53
2023-08-11T02:00:28.584Z,21.24
2023-08-11T02:02:56.097Z,21.14
2023-08-11T02:05:25.968Z,21.12
2023-08-11T02:07:53.684Z,21.06
2023-08-11T02:10:20.638Z,20.84
2023-08-11T02:12:49.730Z,20.77
2023-08-11T02:15:16.453Z,20.96
2023-08-11T02:17:43.892Z,21.14
2023-08-11T02:20:29.518Z,20.95
2023-08-11T02:22:56.575Z,20.65
2023-08-11T02:25:23.569Z,20.63
2023-08-11T02:27:50.871Z,20.84
2023-08-11T02:30:18.700Z,20.93
2023-08-11T02:32:48.852Z,20.81
2023-08-11T02:35:18.509Z,20.79
2023-08-11T02:37:45.821Z,20.79
2023-08-11T02:40:12.693Z,20.76
2023-08-11T02:42:43.751Z,20.70
2023-08-11T02:45:11.778Z,20.74
2023-08-11T02:47:40.350Z,20.84
2023-08-11T02:50:07.897Z,20.87
2023-08-11T02:52:35.917Z,20.72
2023-08-11T02:55:07.531Z,20.53
2023-08-11T02:57:35.740Z,20.56
2023-08-11T03:00:09.468Z,20.66
2023-08-11T03:02:36.867Z,20.57
2023-08-11T03:05:04.966Z,20.54
2023-08-11T03:07:32.435Z,20.57
2023-08-11T03:09:59.418Z,20.60
2023-08-11T03:12:29.232Z,20.74
2023-08-11T03:14:56.580Z,20.79
2023-08-11T03:17:24.672Z,20.88
2023-08-11T03:19:52.905Z,20.90
2023-08-11T03:22:20.933Z,20.90
2023-08-11T03:24:49.173Z,20.79
2023-08-11T03:27:16.309Z,20.60
2023-08-11T03:29:43.053Z,20.63
2023-08-11T03:32:10.702Z,20.45
2023-08-11T03:34:38.701Z,20.29
2023-08-11T03:37:06.614Z,20.32
2023-08-11T03:39:33.460Z,20.42
2023-08-11T03:42:00.139Z,20.57
2023-08-11T03:44:27.160Z,20.62
2023-08-11T03:46:54.407Z,20.58
2023-08-11T03:49:21.325Z,20.59
2023-08-11T03:51:48.084Z,20.66
2023-08-11T03:54:16.338Z,20.66
2023-08-11T03:56:43.093Z,20.65
2023-08-11T03:59:09.880Z,20.69
2023-08-11T04:01:37.111Z,20.76
2023-08-11T04:04:04.116Z,20.83
2023-08-11T04:06:33.979Z,20.77
2023-08-11T04:09:02.659Z,20.43
2023-08-11T04:11:31.034Z,20.14
2023-08-11T04:13:57.899Z,20.07
2023-08-11T04:16:24.730Z,20.17
2023-08-11T04:18:51.412Z,20.33
2023-08-11T04:21:18.258Z,20.22
2023-08-11T04:23:45.015Z,20.45
2023-08-11T04:26:13.298Z,20.42
2023-08-11T04:28:42.665Z,20.34
2023-08-11T04:31:10.929Z,20.25
2023-08-11T04:33:38.679Z,20.37
2023-08-11T04:36:05.695Z,20.45
2023-08-11T04:38:32.457Z,20.52
2023-08-11T04:40:59.912Z,20.52
2023-08-11T04:43:26.749Z,20.43
2023-08-11T04:45:55.363Z,20.36
2023-08-11T04:48:23.148Z,20.13
2023-08-11T04:50:53.363Z,20.13
2023-08-11T04:53:22.372Z,20.06
2023-08-11T04:55:49.673Z,20.22
2023-08-11T04:58:16.598Z,20.25
2023-08-11T05:00:44.476Z,20.33
2023-08-11T05:03:11.503Z,20.28
2023-08-11T05:05:38.287Z,20.16
2023-08-11T05:08:05.439Z,20.23
2023-08-11T05:10:32.109Z,20.38
2023-08-11T05:13:00.097Z,20.51
2023-08-11T05:15:26.939Z,20.52
2023-08-11T05:17:53.736Z,20.55
2023-08-11T05:20:20.440Z,20.55
2023-08-11T05:22:48.862Z,20.64
2023-08-11T05:25:15.737Z,20.76
2023-08-11T05:27:42.662Z,20.81
2023-08-11T05:30:09.758Z,20.87
2023-08-11T05:32:36.860Z,20.81
2023-08-11T05:35:03.884Z,20.79
2023-08-11T05:37:30.900Z,20.85
2023-08-11T05:39:57.659Z,20.75
2023-08-11T05:42:25.042Z,20.78
2023-08-11T05:44:51.819Z,20.89
2023-08-11T05:47:18.807Z,20.94
2023-08-11T05:49:45.520Z,21.02
2023-08-11T05:52:12.419Z,20.95
2023-08-11T05:54:39.095Z,20.71
2023-08-11T05:57:05.986Z,20.47
2023-08-11T05:59:33.302Z,20.40
2023-08-11T06:02:00.186Z,20.33
2023-08-11T06:04:27.229Z,20.36
2023-08-11T06:06:54.894Z,20.54
2023-08-11T06:09:22.669Z,20.74
2023-08-11T06:11:49.448Z,20.86
2023-08-11T06:14:16.146Z,20.94
2023-08-11T06:16:42.861Z,21.07
2023-08-11T06:19:09.542Z,21.20
2023-08-11T06:21:36.434Z,21.25
2023-08-11T06:24:04.272Z,21.29
2023-08-11T06:26:31.361Z,21.30
2023-08-11T06:28:58.346Z,21.30
2023-08-11T06:31:25.059Z,21.36
2023-08-11T06:33:51.705Z,21.39
2023-08-11T06:36:19.129Z,21.45
2023-08-11T06:38:45.861Z,21.44
2023-08-11T06:41:13.024Z,21.49
2023-08-11T06:43:40.403Z,21.55
2023-08-11T06:46:07.682Z,21.51
2023-08-11T06:48:34.749Z,21.57
2023-08-11T06:51:01.597Z,21.49
2023-08-11T06:53:28.410Z,21.40
2023-08-11T06:55:55.182Z,21.29
2023-08-11T06:58:24.073Z,21.32
2023-08-11T07:00:52.501Z,21.21
2023-08-11T07:03:19.229Z,21.06
2023-08-11T07:05:46.345Z,21.24
2023-08-11T07:08:13.112Z,21.24
2023-08-11T07:10:40.840Z,21.20
2023-08-11T07:13:07.564Z,21.37
2023-08-11T07:15:36.109Z,21.45
2023-08-11T07:18:04.824Z,21.57
2023-08-11T07:20:31.686Z,21.69
2023-08-11T07:22:58.365Z,21.80
2023-08-11T07:25:25.147Z,21.82
2023-08-11T07:27:51.903Z,21.84
2023-08-11T07:30:18.940Z,21.92
2023-08-11T07:32:45.687Z,21.97
2023-08-11T07:35:12.520Z,22.03
2023-08-11T07:37:39.167Z,22.13
2023-08-11T07:40:07.656Z,22.20
2023-08-11T07:42:34.397Z,22.25
2023-08-11T07:45:01.144Z,22.30
2023-08-11T07:47:28.155Z,22.32
2023-08-11T07:49:57.706Z,22.40
2023-08-11T07:52:25.011Z,22.43
2023-08-11T07:54:51.779Z,22.51
2023-08-11T07:57:18.750Z,22.57
2023-08-11T07:59:45.668Z,22.69
2023-08-11T08:02:14.354Z,22.76
2023-08-11T08:04:41.177Z,22.59
2023-08-11T08:07:08.272Z,22.77
2023-08-11T08:09:35.669Z,22.86
2023-08-11T08:12:03.170Z,22.87
2023-08-11T08:14:30.080Z,22.89
2023-08-11T08:16:58.061Z,22.95
2023-08-11T08:19:24.869Z,22.99
2023-08-11T08:21:52.066Z,23.04
2023-08-11T08:24:18.724Z,22.86
2023-08-11T08:26:45.686Z,22.98
2023-08-11T08:29:12.449Z,23.04
2023-08-11T08:31:39.462Z,23.12
2023-08-11T08:34:06.217Z,23.20
2023-08-11T08:36:32.936Z,23.15
2023-08-11T08:38:59.622Z,23.07
2023-08-11T08:41:32.177Z,23.03
2023-08-11T08:44:01.507Z,23.13
2023-08-11T08:46:29.703Z,23.25
2023-08-11T08:49:06.064Z,23.42
2023-08-11T08:51:33.063Z,23.49
2023-08-11T08:53:59.707Z,23.58
2023-08-11T08:56:27.827Z,23.46
2023-08-11T08:58:54.671Z,23.49
2023-08-11T09:01:23.029Z,23.55
2023-08-11T09:03:50.847Z,23.49
2023-08-11T09:06:18.243Z,23.54
2023-08-11T09:08:45.146Z,23.68
2023-08-11T09:11:11.932Z,23.83
2023-08-11T09:13:39.202Z,23.85
2023-08-11T09:16:06.478Z,23.83
2023-08-11T09:18:33.916Z,23.98
2023-08-11T09:21:03.377Z,24.17
2023-08-11T09:23:30.585Z,24.26
2023-08-11T09:25:57.439Z,24.28
2023-08-11T09:28:24.215Z,24.29
2023-08-11T09:30:51.773Z,24.38
2023-08-11T09:33:19.367Z,24.40
2023-08-11T09:35:46.353Z,24.51
2023-08-11T09:38:13.105Z,24.44
2023-08-11T09:40:41.145Z,24.70
2023-08-11T09:43:08.249Z,24.81
2023-08-11T09:45:35.027Z,24.85
2023-08-11T09:48:01.835Z,24.91
2023-08-11T09:50:31.359Z,24.99
2023-08-11T09:53:00.980Z,25.04
2023-08-11T09:55:31.067Z,25.10
2023-08-11T09:57:59.403Z,25.06
2023-08-11T10:00:26.514Z,25.17
2023-08-11T10:03:10.748Z,25.26
2023-08-11T10:05:46.442Z,25.21
2023-08-11T10:08:20.040Z,25.27
2023-08-11T10:10:47.128Z,25.41
2023-08-11T10:13:17.184Z,25.46
2023-08-11T10:15:45.203Z,25.46
2023-08-11T10:18:12.076Z,25.40
2023-08-11T10:20:39.655Z,25.34
2023-08-11T10:23:07.307Z,25.36
2023-08-11T10:25:34.259Z,25.43
2023-08-11T10:28:02.291Z,25.53
2023-08-11T10:30:29.515Z,25.59
2023-08-11T10:33:10.366Z,25.64
2023-08-11T10:35:49.009Z,25.57
2023-08-11T10:38:30.353Z,25.53
2023-08-11T10:41:09.436Z,25.61
2023-08-11T10:43:44.210Z,25.56
2023-08-11T10:46:31.421Z,25.65
2023-08-11T10:49:05.043Z,25.72
2023-08-11T10:51:39.063Z,25.75
2023-08-11T10:54:15.113Z,25.75
2023-08-11T10:56:43.804Z,25.74
2023-08-11T10:59:15.986Z,25.74
2023-08-11T11:01:47.757Z,25.74
2023-08-11T11:04:16.910Z,25.83
2023-08-11T11:06:48.432Z,25.84
2023-08-11T11:09:16.140Z,25.79
2023-08-11T11:11:44.446Z,25.80
2023-08-11T11:14:13.026Z,25.86
2023-08-11T11:16:40.646Z,25.91
2023-08-11T11:19:08.825Z,25.95
2023-08-11T11:21:36.086Z,25.99
2023-08-11T11:24:03.089Z,26.14
2023-08-11T11:26:31.875Z,26.21
2023-08-11T11:29:00.726Z,26.19
2023-08-11T11:31:32.017Z,26.17
2023-08-11T11:33:59.030Z,26.21
2023-08-11T11:36:26.510Z,26.19
2023-08-11T11:38:53.425Z,26.14
2023-08-11T11:41:21.247Z,26.05
2023-08-11T11:43:52.078Z,26.02
2023-08-11T11:46:21.141Z,25.97
2023-08-11T11:48:52.981Z,26.03
2023-08-11T11:51:31.242Z,26.16
2023-08-11T11:54:02.318Z,26.07
2023-08-11T11:56:30.689Z,26.17
2023-08-11T11:58:57.919Z,26.28
2023-08-11T12:01:30.508Z,26.35
2023-08-11T12:04:01.661Z,26.41
2023-08-11T12:06:29.907Z,26.48
2023-08-11T12:09:06.324Z,26.55
2023-08-11T12:11:33.896Z,26.64
2023-08-11T12:14:01.665Z,26.63
2023-08-11T12:16:29.223Z,26.65
2023-08-11T12:19:01.587Z,26.76
2023-08-11T12:21:29.328Z,26.75
2023-08-11T12:23:56.457Z,26.89
2023-08-11T12:26:23.200Z,26.98
2023-08-11T12:28:49.856Z,26.96
2023-08-11T12:31:16.916Z,26.94
2023-08-11T12:33:43.727Z,27.02
2023-08-11T12:36:10.725Z,27.07
2023-08-11T12:38:37.708Z,27.12
2023-08-11T12:41:04.533Z,27.22
2023-08-11T12:43:31.158Z,27.25
2023-08-11T12:45:58.019Z,27.28
2023-08-11T12:48:24.962Z,27.25
2023-08-11T12:50:51.803Z,27.35
2023-08-11T12:53:18.434Z,27.37
2023-08-11T12:55:45.263Z,27.35
2023-08-11T12:58:11.932Z,27.33
2023-08-11T13:00:38.661Z,27.27
2023-08-11T13:03:05.811Z,27.35
2023-08-11T13:05:32.551Z,27.45
2023-08-11T13:07:59.372Z,27.51
2023-08-11T13:10:26.342Z,27.58
2023-08-11T13:12:53.046Z,27.55
2023-08-11T13:15:20.512Z,27.52
2023-08-11T13:17:47.765Z,27.51
2023-08-11T13:20:14.572Z,27.47
2023-08-11T13:22:42.473Z,27.51
2023-08-11T13:25:10.621Z,27.54
2023-08-11T13:27:38.668Z,27.54
2023-08-11T13:30:09.273Z,27.47
2023-08-11T13:32:36.611Z,27.57
2023-08-11T13:35:03.604Z,27.50
2023-08-11T13:37:30.408Z,27.57
2023-08-11T13:39:58.705Z,27.61
2023-08-11T13:42:25.485Z,27.62
2023-08-11T13:44:52.242Z,27.61
2023-08-11T13:47:19.150Z,27.60
2023-08-11T13:49:45.867Z,27.62
2023-08-11T13:52:12.602Z,27.73
2023-08-11T13:54:39.336Z,27.71
2023-08-11T13:57:06.169Z,27.68
2023-08-11T13:59:32.827Z,27.68
2023-08-11T14:01:59.585Z,27.73
2023-08-11T14:04:26.277Z,27.80
2023-08-11T14:06:57.434Z,27.81
2023-08-11T14:09:27.793Z,27.81
2023-08-11T14:11:54.411Z,27.79
2023-08-11T14:14:21.080Z,27.71
2023-08-11T14:16:47.756Z,27.74
2023-08-11T14:19:14.457Z,27.76
2023-08-11T14:21:41.309Z,27.84
2023-08-11T14:24:08.733Z,27.94
2023-08-11T14:26:35.371Z,28.00
2023-08-11T14:29:02.535Z,27.97
2023-08-11T14:31:29.230Z,28.05
2023-08-11T14:33:56.003Z,28.10
2023-08-11T14:36:22.820Z,28.09
2023-08-11T14:38:49.691Z,28.05
2023-08-11T14:41:16.706Z,28.06
2023-08-11T14:43:43.895Z,28.09
2023-08-11T14:46:10.600Z,28.17
2023-08-11T14:48:37.261Z,28.20
2023-08-11T14:51:08.145Z,28.18
2023-08-11T14:53:34.996Z,28.20
2023-08-11T14:56:02.010Z,28.25
2023-08-11T14:58:29.131Z,28.34
2023-08-11T15:00:58.724Z,28.31
2023-08-11T15:03:25.761Z,28.34
2023-08-11T15:05:52.459Z,28.13
2023-08-11T15:08:19.230Z,28.16
2023-08-11T15:10:45.929Z,28.10
2023-08-11T15:13:14.161Z,28.14
2023-08-11T15:15:42.941Z,28.12
2023-08-11T15:18:09.628Z,28.15
2023-08-11T15:20:36.380Z,28.17
2023-08-11T15:23:03.188Z,28.20
2023-08-11T15:25:29.947Z,28.22
2023-08-11T15:27:57.142Z,28.26
2023-08-11T15:30:24.210Z,28.22
2023-08-11T15:32:51.188Z,28.26
2023-08-11T15:35:19.121Z,28.36
2023-08-11T15:37:46.143Z,28.40
2023-08-11T15:40:13.235Z,28.44
2023-08-11T15:42:40.239Z,28.43
2023-08-11T15:45:07.572Z,28.37
2023-08-11T15:47:34.242Z,28.30
2023-08-11T15:50:01.797Z,28.31
2023-08-11T15:52:28.713Z,28.30
2023-08-11T15:54:55.399Z,28.30
2023-08-11T15:57:22.239Z,28.32
2023-08-11T15:59:49.035Z,28.32
2023-08-11T16:02:16.027Z,28.27
2023-08-11T16:04:42.909Z,28.33
2023-08-11T16:07:09.802Z,28.29
2023-08-11T16:09:37.877Z,28.28
2023-08-11T16:12:04.895Z,28.25
2023-08-11T16:14:32.411Z,28.18
2023-08-11T16:16:59.973Z,28.23
2023-08-11T16:19:26.665Z,28.25
2023-08-11T16:21:53.378Z,28.30
2023-08-11T16:24:20.389Z,28.32
2023-08-11T16:26:47.035Z,28.36
2023-08-11T16:29:13.764Z,28.36
2023-08-11T16:31:40.413Z,28.37
2023-08-11T16:34:07.205Z,28.33
2023-08-11T16:36:34.007Z,28.33
2023-08-11T16:39:00.700Z,28.29
2023-08-11T16:41:27.480Z,28.29
2023-08-11T16:43:54.629Z,28.33
2023-08-11T16:46:23.506Z,28.38
2023-08-11T16:48:50.820Z,28.40
2023-08-11T16:51:17.540Z,28.36
2023-08-11T16:53:44.458Z,28.31
2023-08-11T16:56:11.485Z,28.29
2023-08-11T16:58:38.415Z,28.28
2023-08-11T17:01:05.662Z,28.27
2023-08-11T17:03:32.759Z,28.26
2023-08-11T17:05:59.873Z,28.24
2023-08-11T17:08:26.673Z,28.19
2023-08-11T17:10:53.436Z,28.15
2023-08-11T17:13:20.330Z,28.06
2023-08-11T17:15:47.010Z,27.99
2023-08-11T17:18:13.827Z,28.00
2023-08-11T17:20:40.700Z,27.87
2023-08-11T17:23:07.533Z,27.90
2023-08-11T17:25:34.263Z,27.75
2023-08-11T17:28:01.033Z,27.77
2023-08-11T17:30:30.739Z,27.80
2023-08-11T17:32:58.673Z,27.53
2023-08-11T17:35:25.907Z,27.30
2023-08-11T17:37:52.735Z,27.12
2023-08-11T17:40:19.418Z,26.87
2023-08-11T17:42:46.343Z,26.69
2023-08-11T17:45:13.218Z,26.51
2023-08-11T17:47:40.303Z,26.48
2023-08-11T17:50:07.411Z,26.37
2023-08-11T17:52:34.912Z,26.15
2023-08-11T17:55:01.728Z,25.95
2023-08-11T17:57:28.493Z,26.03
2023-08-11T17:59:55.214Z,26.08
2023-08-11T18:02:22.046Z,25.89
2023-08-11T18:04:48.729Z,25.85
2023-08-11T18:07:15.431Z,25.71
2023-08-11T18:09:42.117Z,25.69
2023-08-11T18:12:09.835Z,25.69
2023-08-11T18:14:36.873Z,25.68
2023-08-11T18:17:04.266Z,25.68
2023-08-11T18:19:31.044Z,25.57
2023-08-11T18:21:57.834Z,25.64
2023-08-11T18:24:24.492Z,25.64
2023-08-11T18:26:51.226Z,25.70
2023-08-11T18:29:19.193Z,25.44
2023-08-11T18:31:46.112Z,25.46
2023-08-11T18:34:12.770Z,25.50
2023-08-11T18:36:39.475Z,25.47
2023-08-11T18:39:06.301Z,25.42
2023-08-11T18:41:33.094Z,25.40
2023-08-11T18:44:00.973Z,25.43
2023-08-11T18:46:27.889Z,25.40
2023-08-11T18:48:54.820Z,25.52
2023-08-11T18:51:21.567Z,25.55
2023-08-11T18:53:48.210Z,25.66
2023-08-11T18:56:14.999Z,25.82
2023-08-11T18:58:41.898Z,25.71
2023-08-11T19:01:08.685Z,25.51
2023-08-11T19:03:35.938Z,25.32
2023-08-11T19:06:02.810Z,25.43
2023-08-11T19:08:29.702Z,25.62
2023-08-11T19:10:56.463Z,25.44
2023-08-11T19:13:23.244Z,25.49
2023-08-11T19:15:50.708Z,25.64
2023-08-11T19:18:18.026Z,25.66
2023-08-11T19:20:47.240Z,25.23
2023-08-11T19:23:14.447Z,25.48
2023-08-11T19:25:41.247Z,25.63
2023-08-11T19:28:08.367Z,25.26
2023-08-11T19:30:35.506Z,25.56
2023-08-11T19:33:02.586Z,25.59
2023-08-11T19:35:29.454Z,25.52
2023-08-11T19:37:56.155Z,25.34
2023-08-11T19:40:23.018Z,25.21
2023-08-11T19:42:49.662Z,25.37
2023-08-11T19:45:16.487Z,25.50
2023-08-11T19:47:43.466Z,25.31
2023-08-11T19:50:10.459Z,25.34
2023-08-11T19:52:37.266Z,25.48
2023-08-11T19:55:04.635Z,25.41
2023-08-11T19:57:31.274Z,25.17
2023-08-11T19:59:58.105Z,24.95
2023-08-11T20:02:24.817Z,24.82
2023-08-11T20:04:51.573Z,25.05
2023-08-11T20:07:18.241Z,25.10
2023-08-11T20:09:44.945Z,24.78
2023-08-11T20:12:11.673Z,24.66
2023-08-11T20:14:38.470Z,24.45
2023-08-11T20:17:05.176Z,24.51
2023-08-11T20:19:31.985Z,24.71
2023-08-11T20:21:59.811Z,24.58
2023-08-11T20:24:26.554Z,24.78
2023-08-11T20:26:57.394Z,24.76
2023-08-11T20:29:25.367Z,24.64
2023-08-11T20:31:55.886Z,24.77
2023-08-11T20:34:23.987Z,24.91
2023-08-11T20:36:51.284Z,24.77
2023-08-11T20:39:18.054Z,24.82
2023-08-11T20:41:44.807Z,24.49
2023-08-11T20:44:11.844Z,24.39
2023-08-11T20:46:38.858Z,24.60
2023-08-11T20:49:05.793Z,24.79
2023-08-11T20:51:32.467Z,24.91
2023-08-11T20:53:59.229Z,24.64
2023-08-11T20:56:25.977Z,24.62
2023-08-11T20:58:52.721Z,24.78
2023-08-11T21:01:19.444Z,24.46
2023-08-11T21:03:46.411Z,24.18
2023-08-11T21:06:13.159Z,24.17
2023-08-11T21:08:47.793Z,24.51
2023-08-11T21:11:15.675Z,24.69
2023-08-11T21:13:42.320Z,24.31
2023-08-11T21:16:09.226Z,24.48
2023-08-11T21:18:36.191Z,24.68
2023-08-11T21:21:02.973Z,24.78
2023-08-11T21:23:29.666Z,24.86
2023-08-11T21:25:56.408Z,24.66
2023-08-11T21:28:23.078Z,24.43
2023-08-11T21:31:03.880Z,24.22
2023-08-11T21:33:34.790Z,24.37
2023-08-11T21:36:01.488Z,24.26
2023-08-11T21:38:28.537Z,23.94
2023-08-11T21:40:55.970Z,23.65
2023-08-11T21:43:23.150Z,23.58
2023-08-11T21:45:49.921Z,23.68
2023-08-11T21:48:16.756Z,23.77
2023-08-11T21:50:43.728Z,23.78
2023-08-11T21:53:22.312Z,23.57
2023-08-11T21:55:50.763Z,23.82
2023-08-11T21:58:17.442Z,24.03
2023-08-11T22:00:45.006Z,24.10
2023-08-11T22:03:12.083Z,24.04
2023-08-11T22:05:39.016Z,24.03
2023-08-11T22:08:05.940Z,23.95
2023-08-11T22:10:32.777Z,23.97
2023-08-11T22:12:59.569Z,24.01
2023-08-11T22:15:26.308Z,23.99
2023-08-11T22:17:54.755Z,23.99
2023-08-11T22:20:22.017Z,23.60
2023-08-11T22:22:48.652Z,23.44
2023-08-11T22:25:16.131Z,23.76
2023-08-11T22:27:43.176Z,23.74
2023-08-11T22:30:10.279Z,23.85
2023-08-11T22:32:37.021Z,23.93
2023-08-11T22:35:04.132Z,23.76
2023-08-11T22:37:30.893Z,23.61
2023-08-11T22:39:57.751Z,23.49
2023-08-11T22:42:27.814Z,23.48
2023-08-11T22:44:55.455Z,23.32
2023-08-11T22:47:23.464Z,23.47
2023-08-11T22:49:50.930Z,23.32
2023-08-11T22:52:18.808Z,23.41
2023-08-11T22:54:45.578Z,23.63
2023-08-11T22:57:12.500Z,23.60
2023-08-11T22:59:39.457Z,23.73
2023-08-11T23:02:06.128Z,23.76
2023-08-11T23:04:32.872Z,23.81
2023-08-11T23:06:59.586Z,23.74
2023-08-11T23:09:26.751Z,23.45
2023-08-11T23:11:53.455Z,23.59
2023-08-11T23:14:20.152Z,23.74
2023-08-11T23:16:46.904Z,23.75
2023-08-11T23:19:13.669Z,23.66
2023-08-11T23:21:40.347Z,23.53
2023-08-11T23:24:07.641Z,23.64
2023-08-11T23:26:34.305Z,23.58
2023-08-11T23:29:01.424Z,23.52
2023-08-11T23:31:28.265Z,23.58
2023-08-11T23:33:55.030Z,23.52
2023-08-11T23:36:21.710Z,23.34
2023-08-11T23:38:48.952Z,23.35
2023-08-11T23:41:15.650Z,23.28
2023-08-11T23:43:42.404Z,23.49
2023-08-11T23:46:14.814Z,23.57
2023-08-11T23:48:44.846Z,23.55
2023-08-11T23:51:11.756Z,23.45
2023-08-11T23:53:38.670Z,23.36
2023-08-11T23:56:05.466Z,23.20
2023-08-11T23:58:32.242Z,23.28
